PHENX84 VNLK-VNLK
Flight info
| Callsign | PHENX84 |
|---|---|
| Flight time | 0h 21m |
| Altitude | 15000 |
| Route | DCT |
| Aircraft | C172/L-SFG/C |
Departure
| Time | 2026-04-07 12:06 |
|---|---|
| Airport | Tenzing-Hillary Airport (VNLK) |
Arrival
| Time | 2026-04-07 12:28 |
|---|---|
| Airport | Tenzing-Hillary Airport (VNLK) |
| Time | Latitude | Longitude | Altitude | Speed | Heading |
|---|---|---|---|---|---|
| 2026-04-07 11:58 | 27.68794 | 86.73169 | 9518 ft | 0 kts | 239° |
| 2026-04-07 11:59 | 27.68792 | 86.73165 | 9518 ft | 3 kts | 236° |
| 2026-04-07 11:59 | 27.68789 | 86.73161 | 9518 ft | 0 kts | 212° |
| 2026-04-07 12:02 | 27.68794 | 86.73167 | 9517 ft | 1 kts | 239° |
| 2026-04-07 12:02 | 27.68799 | 86.73176 | 9518 ft | 1 kts | 238° |
| 2026-04-07 12:02 | 27.68801 | 86.73180 | 9518 ft | 0 kts | 237° |
| 2026-04-07 12:03 | 27.68799 | 86.73176 | 9518 ft | 7 kts | 235° |
| 2026-04-07 12:03 | 27.68694 | 86.72979 | 9434 ft | 61 kts | 239° |
| 2026-04-07 12:04 | 27.68374 | 86.72384 | 9170 ft | 108 kts | 236° |
| 2026-04-07 12:04 | 27.67839 | 86.71768 | 9169 ft | 112 kts | 217° |
| 2026-04-07 12:04 | 27.67205 | 86.71292 | 9250 ft | 106 kts | 212° |
| 2026-04-07 12:04 | 27.66557 | 86.70877 | 9305 ft | 108 kts | 208° |
| 2026-04-07 12:05 | 27.65894 | 86.70520 | 9396 ft | 105 kts | 205° |
| 2026-04-07 12:05 | 27.65214 | 86.70238 | 9458 ft | 104 kts | 202° |
| 2026-04-07 12:05 | 27.64538 | 86.69927 | 9495 ft | 110 kts | 204° |
| 2026-04-07 12:05 | 27.63822 | 86.69668 | 9586 ft | 104 kts | 195° |
| 2026-04-07 12:06 | 27.63136 | 86.69619 | 9752 ft | 98 kts | 162° |
| 2026-04-07 12:06 | 27.62765 | 86.70203 | 9836 ft | 106 kts | 89° |
| 2026-04-07 12:06 | 27.63250 | 86.70816 | 9797 ft | 119 kts | 11° |
| 2026-04-07 12:06 | 27.64028 | 86.70878 | 9983 ft | 109 kts | 358° |
| 2026-04-07 12:07 | 27.64789 | 86.70859 | 10078 ft | 108 kts | 0° |
| 2026-04-07 12:07 | 27.65546 | 86.70903 | 10151 ft | 111 kts | 4° |
| 2026-04-07 12:07 | 27.66323 | 86.70967 | 10209 ft | 111 kts | 2° |
| 2026-04-07 12:07 | 27.67098 | 86.70994 | 10270 ft | 111 kts | 1° |
| 2026-04-07 12:08 | 27.67856 | 86.71188 | 10381 ft | 109 kts | 18° |
| 2026-04-07 12:08 | 27.68600 | 86.71386 | 10412 ft | 112 kts | 6° |
| 2026-04-07 12:08 | 27.69396 | 86.71455 | 10435 ft | 116 kts | 1° |
| 2026-04-07 12:08 | 27.70179 | 86.71445 | 10567 ft | 110 kts | 359° |
| 2026-04-07 12:09 | 27.70958 | 86.71441 | 10629 ft | 111 kts | 358° |
| 2026-04-07 12:09 | 27.71747 | 86.71411 | 10650 ft | 115 kts | 360° |
| 2026-04-07 12:09 | 27.72537 | 86.71432 | 10766 ft | 110 kts | 0° |
| 2026-04-07 12:09 | 27.73296 | 86.71457 | 10820 ft | 113 kts | 4° |
| 2026-04-07 12:10 | 27.74108 | 86.71636 | 10709 ft | 121 kts | 17° |
| 2026-04-07 12:10 | 27.74861 | 86.71881 | 10956 ft | 105 kts | 13° |
| 2026-04-07 12:10 | 27.75581 | 86.72040 | 11034 ft | 106 kts | 5° |
| 2026-04-07 12:10 | 27.76263 | 86.72065 | 11108 ft | 100 kts | 358° |
| 2026-04-07 12:11 | 27.76974 | 86.72069 | 11179 ft | 96 kts | 355° |
| 2026-04-07 12:11 | 27.77610 | 86.72028 | 11221 ft | 93 kts | 358° |
| 2026-04-07 12:11 | 27.78239 | 86.71944 | 11232 ft | 89 kts | 342° |
| 2026-04-07 12:11 | 27.78774 | 86.71637 | 11176 ft | 87 kts | 320° |
| 2026-04-07 12:12 | 27.79337 | 86.71504 | 11022 ft | 107 kts | 43° |
| 2026-04-07 12:12 | 27.79135 | 86.72080 | 10826 ft | 112 kts | 184° |
| 2026-04-07 12:12 | 27.78385 | 86.71941 | 10910 ft | 105 kts | 192° |
| 2026-04-07 12:12 | 27.77635 | 86.71865 | 10795 ft | 105 kts | 192° |
| 2026-04-07 12:13 | 27.76937 | 86.71686 | 10816 ft | 102 kts | 199° |
| 2026-04-07 12:13 | 27.76257 | 86.71423 | 10793 ft | 111 kts | 200° |
| 2026-04-07 12:13 | 27.75499 | 86.71201 | 10873 ft | 106 kts | 194° |
| 2026-04-07 12:13 | 27.74802 | 86.71036 | 10919 ft | 100 kts | 193° |
| 2026-04-07 12:14 | 27.74131 | 86.70901 | 10947 ft | 99 kts | 190° |
| 2026-04-07 12:14 | 27.73453 | 86.70812 | 11037 ft | 95 kts | 188° |
| 2026-04-07 12:14 | 27.72780 | 86.70728 | 11021 ft | 97 kts | 190° |
| 2026-04-07 12:14 | 27.72129 | 86.70609 | 11067 ft | 94 kts | 189° |
| 2026-04-07 12:15 | 27.71423 | 86.70583 | 10971 ft | 108 kts | 181° |
| 2026-04-07 12:15 | 27.70657 | 86.70599 | 10926 ft | 114 kts | 177° |
| 2026-04-07 12:15 | 27.69877 | 86.70700 | 10957 ft | 109 kts | 182° |
| 2026-04-07 12:15 | 27.69132 | 86.70682 | 11002 ft | 106 kts | 186° |
| 2026-04-07 12:16 | 27.68399 | 86.70628 | 11045 ft | 105 kts | 186° |
| 2026-04-07 12:16 | 27.67675 | 86.70572 | 11090 ft | 104 kts | 185° |
| 2026-04-07 12:16 | 27.66958 | 86.70516 | 11098 ft | 104 kts | 185° |
| 2026-04-07 12:16 | 27.66237 | 86.70467 | 11153 ft | 104 kts | 186° |
| 2026-04-07 12:17 | 27.65515 | 86.70414 | 11196 ft | 103 kts | 186° |
| 2026-04-07 12:17 | 27.64797 | 86.70370 | 11244 ft | 104 kts | 186° |
| 2026-04-07 12:17 | 27.64073 | 86.70318 | 11294 ft | 105 kts | 186° |
| 2026-04-07 12:17 | 27.63345 | 86.70264 | 11343 ft | 105 kts | 186° |
| 2026-04-07 12:18 | 27.62609 | 86.70213 | 11398 ft | 106 kts | 185° |
| 2026-04-07 12:18 | 27.61887 | 86.70167 | 11486 ft | 102 kts | 186° |
| 2026-04-07 12:18 | 27.61189 | 86.70125 | 11574 ft | 99 kts | 186° |
| 2026-04-07 12:18 | 27.60519 | 86.70153 | 11640 ft | 97 kts | 154° |
| 2026-04-07 12:19 | 27.60325 | 86.70786 | 11708 ft | 92 kts | 60° |
| 2026-04-07 12:19 | 27.60841 | 86.71020 | 11769 ft | 79 kts | 2° |
| 2026-04-07 12:19 | 27.61387 | 86.71053 | 11779 ft | 79 kts | 0° |
| 2026-04-07 12:19 | 27.61760 | 86.71067 | 11765 ft | 83 kts | 359° |
| 2026-04-07 12:20 | 27.62572 | 86.71084 | 11761 ft | 92 kts | 0° |
| 2026-04-07 12:20 | 27.63221 | 86.71108 | 11800 ft | 95 kts | 0° |
| 2026-04-07 12:20 | 27.63663 | 86.71117 | 11824 ft | 97 kts | 360° |
| 2026-04-07 12:20 | 27.64345 | 86.71129 | 11863 ft | 98 kts | 358° |
| 2026-04-07 12:21 | 27.65015 | 86.71127 | 11932 ft | 96 kts | 358° |
| 2026-04-07 12:21 | 27.65679 | 86.71121 | 12000 ft | 95 kts | 358° |
| 2026-04-07 12:21 | 27.66335 | 86.71111 | 12072 ft | 93 kts | 358° |
| 2026-04-07 12:21 | 27.66979 | 86.71106 | 12141 ft | 92 kts | 358° |
| 2026-04-07 12:22 | 27.67608 | 86.71097 | 12245 ft | 89 kts | 358° |
| 2026-04-07 12:22 | 27.68218 | 86.71092 | 12292 ft | 87 kts | 360° |
| 2026-04-07 12:22 | 27.68808 | 86.71080 | 12327 ft | 83 kts | 357° |
| 2026-04-07 12:22 | 27.69378 | 86.71077 | 12341 ft | 81 kts | 359° |
| 2026-04-07 12:23 | 27.69934 | 86.71069 | 12351 ft | 78 kts | 357° |
| 2026-04-07 12:23 | 27.70463 | 86.71061 | 12187 ft | 81 kts | 359° |
| 2026-04-07 12:23 | 27.71035 | 86.71064 | 11901 ft | 82 kts | 358° |
| 2026-04-07 12:23 | 27.71600 | 86.71062 | 11643 ft | 80 kts | 359° |
| 2026-04-07 12:24 | 27.72201 | 86.71059 | 11583 ft | 83 kts | 354° |
| 2026-04-07 12:24 | 27.72854 | 86.70797 | 11300 ft | 114 kts | 320° |
| 2026-04-07 12:24 | 27.73476 | 86.70308 | 11419 ft | 99 kts | 334° |
| 2026-04-07 12:24 | 27.73874 | 86.70713 | 11148 ft | 116 kts | 125° |
| 2026-04-07 12:25 | 27.73177 | 86.70757 | 10946 ft | 124 kts | 197° |
| 2026-04-07 12:25 | 27.72279 | 86.70722 | 10779 ft | 129 kts | 174° |
| 2026-04-07 12:25 | 27.71424 | 86.70829 | 10801 ft | 119 kts | 178° |
| 2026-04-07 12:25 | 27.70617 | 86.70852 | 10844 ft | 113 kts | 179° |
| 2026-04-07 12:26 | 27.69838 | 86.70919 | 10889 ft | 106 kts | 176° |
| 2026-04-07 12:26 | 27.69139 | 86.71070 | 10958 ft | 103 kts | 166° |
| 2026-04-07 12:26 | 27.68431 | 86.71345 | 10689 ft | 122 kts | 163° |
| 2026-04-07 12:26 | 27.67573 | 86.71663 | 10294 ft | 127 kts | 164° |
| 2026-04-07 12:27 | 27.66934 | 86.71380 | 9872 ft | 123 kts | 262° |
| 2026-04-07 12:27 | 27.67476 | 86.70720 | 9583 ft | 118 kts | 4° |
| 2026-04-07 12:27 | 27.68068 | 86.71267 | 9399 ft | 113 kts | 70° |
| 2026-04-07 12:27 | 27.68264 | 86.72101 | 9237 ft | 106 kts | 70° |
| 2026-04-07 12:28 | 27.68579 | 86.72751 | 9325 ft | 80 kts | 60° |
| 2026-04-07 12:28 | 27.68762 | 86.73109 | 9510 ft | 21 kts | 59° |
| 2026-04-07 12:28 | 27.68769 | 86.73161 | 9515 ft | 0 kts | 138° |
| 2026-04-07 12:29 | 27.68772 | 86.73192 | 9516 ft | 0 kts | 61° |